Time;durP1;ratioP1;P1;durP2;ratioP2;P2;SDS_P1;SDS_P2;PMS_P1;PMS_P2;Temp;Humidity;BMP_temperature;BMP_pressure;BME280_temperature;BME280_humidity;BME280_pressure;Samples;Min_cycle;Max_cycle;Signal;HPM_P1;HPM_P2
2021/08/22 00:01:09;;;;;;;6.28;4.70;;;18.90;99.90;;;;;;1966637;72;21063;-75
2021/08/22 00:03:35;;;;;;;7.45;4.47;;;18.90;99.90;;;;;;1959847;72;21480;-75
2021/08/22 00:06:02;;;;;;;6.67;4.62;;;19.00;99.90;;;;;;1979430;71;21580;-75
2021/08/22 00:08:28;;;;;;;10.98;4.67;;;19.00;99.90;;;;;;1979306;71;21531;-75
2021/08/22 00:10:54;;;;;;;5.60;5.00;;;19.00;99.90;;;;;;1979414;72;21440;-74
2021/08/22 00:13:22;;;;;;;5.62;4.92;;;19.10;99.90;;;;;;1979413;72;21004;-75
2021/08/22 00:15:48;;;;;;;5.47;4.55;;;19.10;99.90;;;;;;1979404;72;21513;-75
2021/08/22 00:18:14;;;;;;;5.22;4.75;;;19.20;99.90;;;;;;1979358;72;21528;-75
2021/08/22 00:20:40;;;;;;;4.50;4.08;;;19.20;99.90;;;;;;1979323;72;21497;-75
2021/08/22 00:23:06;;;;;;;4.72;4.33;;;19.30;99.90;;;;;;1979362;72;21503;-76
2021/08/22 00:25:32;;;;;;;5.70;4.45;;;19.30;99.90;;;;;;1979313;72;21515;-75
2021/08/22 00:28:00;;;;;;;6.17;4.85;;;19.30;99.90;;;;;;1979429;71;21128;-75
2021/08/22 00:30:28;;;;;;;5.67;4.75;;;19.40;99.90;;;;;;1979413;72;21059;-75
2021/08/22 00:32:54;;;;;;;6.03;5.33;;;19.40;99.90;;;;;;1979288;72;21084;-75
2021/08/22 00:35:21;;;;;;;9.63;5.15;;;19.20;99.90;;;;;;1979309;72;21067;-74
2021/08/22 00:37:47;;;;;;;8.48;5.90;;;19.30;99.90;;;;;;1979461;72;21083;-75
2021/08/22 00:40:13;;;;;;;18.77;6.90;;;19.40;99.90;;;;;;1979302;71;21055;-73
2021/08/22 00:42:39;;;;;;;9.70;5.80;;;19.50;99.90;;;;;;1979401;72;21055;-77
2021/08/22 00:45:05;;;;;;;9.50;5.40;;;19.30;99.90;;;;;;1979250;72;21162;-77
2021/08/22 00:47:31;;;;;;;6.17;3.85;;;19.00;99.90;;;;;;1979534;72;21136;-76
2021/08/22 00:49:57;;;;;;;8.20;4.58;;;18.70;99.90;;;;;;1979264;72;21131;-76
2021/08/22 00:52:23;;;;;;;13.25;3.70;;;18.70;99.90;;;;;;1979465;72;21032;-76
2021/08/22 00:54:50;;;;;;;10.68;3.72;;;18.60;99.90;;;;;;1979255;72;21177;-76
2021/08/22 00:57:18;;;;;;;4.78;2.95;;;18.50;99.90;;;;;;1979503;72;21067;-76
2021/08/22 00:59:43;;;;;;;7.47;2.47;;;18.40;99.90;;;;;;1979168;72;21484;-76
2021/08/22 01:02:10;;;;;;;5.97;2.22;;;18.30;99.90;;;;;;1979462;72;21458;-78
2021/08/22 01:04:36;;;;;;;5.92;2.55;;;18.20;99.90;;;;;;1979235;72;21165;-77
2021/08/22 01:07:02;;;;;;;2.52;2.15;;;18.10;99.90;;;;;;1979422;72;21140;-78
2021/08/22 01:09:28;;;;;;;2.72;2.52;;;18.20;99.90;;;;;;1979296;72;21228;-78
2021/08/22 01:11:55;;;;;;;3.40;2.40;;;18.00;99.90;;;;;;1979410;72;21036;-79
2021/08/22 01:14:21;;;;;;;2.72;2.40;;;18.10;99.90;;;;;;1979393;72;21456;-79
2021/08/22 01:16:47;;;;;;;5.70;2.37;;;18.10;99.90;;;;;;1979313;72;21681;-79
2021/08/22 01:19:13;;;;;;;2.27;1.98;;;18.00;99.90;;;;;;1979276;71;21578;-79
2021/08/22 01:21:39;;;;;;;3.35;2.87;;;18.00;99.90;;;;;;1979375;71;21169;-79
2021/08/22 01:24:05;;;;;;;3.85;2.08;;;18.10;99.90;;;;;;1979221;72;21161;-79
2021/08/22 01:26:32;;;;;;;4.92;2.35;;;18.10;99.90;;;;;;1979235;72;21157;-79
2021/08/22 01:28:58;;;;;;;3.12;2.40;;;18.00;99.90;;;;;;1979399;72;21080;-79
2021/08/22 01:31:24;;;;;;;3.47;2.17;;;18.00;99.90;;;;;;1979165;72;21133;-79
2021/08/22 01:33:51;;;;;;;8.28;2.33;;;18.00;99.90;;;;;;1979350;71;21069;-78
2021/08/22 01:36:17;;;;;;;2.77;2.52;;;17.80;99.90;;;;;;1979282;72;21139;-78
2021/08/22 01:38:44;;;;;;;3.55;2.60;;;17.60;99.90;;;;;;1980029;72;21126;-78
2021/08/22 01:41:10;;;;;;;3.20;2.60;;;17.70;99.90;;;;;;1983290;72;21025;-79
2021/08/22 01:43:36;;;;;;;6.33;2.60;;;17.60;99.90;;;;;;1982676;71;21036;-79
2021/08/22 01:46:02;;;;;;;3.17;2.60;;;17.70;99.90;;;;;;1979220;72;21177;-78
2021/08/22 01:48:28;;;;;;;2.95;2.47;;;17.70;99.90;;;;;;1979437;72;21577;-78
2021/08/22 01:50:55;;;;;;;2.87;2.47;;;17.70;99.90;;;;;;1979209;72;21544;-78
2021/08/22 01:53:21;;;;;;;4.22;2.95;;;17.80;99.90;;;;;;1979240;72;21080;-78
2021/08/22 01:55:47;;;;;;;4.12;2.98;;;17.80;99.90;;;;;;1979263;71;21080;-78
2021/08/22 01:58:13;;;;;;;2.33;2.10;;;17.90;99.90;;;;;;1979235;72;21056;-78
2021/08/22 02:00:39;;;;;;;5.15;2.60;;;17.90;99.90;;;;;;1979255;72;21084;-78
2021/08/22 02:03:09;;;;;;;3.37;2.80;;;17.90;99.90;;;;;;1979221;72;21095;-77
2021/08/22 02:05:35;;;;;;;2.80;2.52;;;17.80;99.90;;;;;;1979400;72;21145;-79
2021/08/22 02:08:01;;;;;;;3.12;2.65;;;17.80;99.90;;;;;;1979317;72;21136;-79
2021/08/22 02:10:28;;;;;;;4.87;2.72;;;17.80;99.90;;;;;;1979255;72;21082;-78
2021/08/22 02:12:54;;;;;;;2.90;2.30;;;17.80;99.90;;;;;;1979346;72;21067;-78
2021/08/22 02:15:20;;;;;;;2.85;2.47;;;17.80;99.90;;;;;;1979221;71;21166;-79
2021/08/22 02:17:46;;;;;;;4.97;2.50;;;17.80;99.90;;;;;;1979136;72;21052;-79
2021/08/22 02:20:12;;;;;;;4.92;2.55;;;17.80;99.90;;;;;;1979348;72;21059;-78
2021/08/22 02:22:42;;;;;;;2.85;2.62;;;17.80;99.90;;;;;;1979128;72;21084;-79
2021/08/22 02:25:06;;;;;;;2.87;2.47;;;17.80;99.90;;;;;;1978841;72;21481;-79
2021/08/22 02:27:32;;;;;;;3.10;2.17;;;17.80;99.90;;;;;;1978533;71;21617;-79
2021/08/22 02:29:58;;;;;;;4.53;2.30;;;17.90;99.90;;;;;;1979547;72;21451;-79
2021/08/22 02:32:25;;;;;;;5.47;2.10;;;17.90;99.90;;;;;;1979328;72;21502;-78
2021/08/22 02:34:51;;;;;;;4.12;2.37;;;17.80;99.90;;;;;;1979358;72;21448;-79
2021/08/22 02:37:17;;;;;;;8.95;3.00;;;17.70;99.90;;;;;;1979125;72;21150;-79
2021/08/22 02:39:44;;;;;;;3.83;2.90;;;17.70;99.90;;;;;;1979114;72;21118;-78
2021/08/22 02:42:10;;;;;;;4.62;3.40;;;17.70;99.90;;;;;;1979277;72;21051;-79
2021/08/22 02:44:36;;;;;;;4.45;2.80;;;17.80;99.90;;;;;;1979106;72;21566;-78
2021/08/22 02:47:02;;;;;;;4.35;3.02;;;17.70;99.90;;;;;;1979268;72;21545;-79
2021/08/22 02:49:28;;;;;;;3.25;2.95;;;17.70;99.90;;;;;;1979114;72;21593;-77
2021/08/22 02:51:54;;;;;;;6.15;3.50;;;17.70;99.90;;;;;;1979318;72;21539;-78
2021/08/22 02:54:20;;;;;;;2.98;2.62;;;17.70;99.90;;;;;;1979085;72;21068;-77
2021/08/22 02:56:47;;;;;;;3.50;3.10;;;17.70;99.90;;;;;;1979223;72;21048;-78
2021/08/22 02:59:13;;;;;;;3.00;2.70;;;17.70;99.90;;;;;;1979244;72;21098;-78
2021/08/22 03:01:39;;;;;;;3.77;3.27;;;17.80;99.90;;;;;;1979211;71;21153;-77
2021/08/22 03:04:05;;;;;;;4.85;3.25;;;17.80;99.90;;;;;;1979206;72;21068;-77
2021/08/22 03:06:31;;;;;;;4.72;3.47;;;17.70;99.90;;;;;;1979296;72;21047;-77
2021/08/22 03:08:57;;;;;;;4.75;3.15;;;17.70;99.90;;;;;;1979260;72;21135;-78
2021/08/22 03:11:23;;;;;;;3.42;3.12;;;17.70;99.90;;;;;;1979199;72;21079;-77
2021/08/22 03:13:49;;;;;;;6.92;3.50;;;17.70;99.90;;;;;;1979349;72;21025;-77
2021/08/22 03:16:16;;;;;;;3.85;2.87;;;17.60;99.90;;;;;;1979341;72;21148;-77
2021/08/22 03:18:42;;;;;;;5.28;2.90;;;17.60;99.90;;;;;;1979402;72;21120;-77
2021/08/22 03:21:08;;;;;;;5.47;3.10;;;17.60;99.90;;;;;;1979364;72;21094;-77
2021/08/22 03:23:34;;;;;;;3.80;3.35;;;17.60;99.90;;;;;;1979401;72;21028;-78
2021/08/22 03:26:02;;;;;;;6.70;3.55;;;17.40;99.90;;;;;;1979399;72;21047;-78
2021/08/22 03:28:28;;;;;;;4.70;3.70;;;17.40;99.90;;;;;;1979125;72;21129;-77
2021/08/22 03:30:54;;;;;;;3.77;3.40;;;17.40;99.90;;;;;;1979321;72;21063;-78
2021/08/22 03:33:20;;;;;;;7.15;4.15;;;17.40;99.90;;;;;;1979222;71;21211;-78
2021/08/22 03:35:46;;;;;;;7.03;4.17;;;17.40;99.90;;;;;;1979314;72;21024;-78
2021/08/22 03:38:12;;;;;;;3.95;3.52;;;17.40;99.90;;;;;;1979124;72;21165;-78
2021/08/22 03:40:39;;;;;;;5.65;3.80;;;17.60;99.90;;;;;;1979325;72;21052;-78
2021/08/22 03:43:05;;;;;;;5.08;3.98;;;17.50;99.90;;;;;;1979094;72;21103;-79
2021/08/22 03:45:31;;;;;;;4.90;3.60;;;17.60;99.90;;;;;;1979353;72;21117;-79
2021/08/22 03:47:57;;;;;;;4.47;3.58;;;17.60;99.90;;;;;;1979092;72;21165;-78
2021/08/22 03:50:23;;;;;;;3.42;3.12;;;17.60;99.90;;;;;;1979305;72;21111;-78
2021/08/22 03:52:51;;;;;;;5.10;3.52;;;17.60;99.90;;;;;;1979265;72;21156;-79
2021/08/22 03:55:17;;;;;;;3.60;3.30;;;17.60;99.90;;;;;;1979141;71;21348;-78
2021/08/22 03:57:43;;;;;;;5.12;3.83;;;17.60;99.90;;;;;;1979361;72;21096;-78
2021/08/22 04:00:09;;;;;;;6.30;3.77;;;17.50;99.90;;;;;;1979412;72;21055;-78
2021/08/22 04:02:35;;;;;;;4.20;3.80;;;17.50;99.90;;;;;;1979370;72;21051;-78
2021/08/22 04:05:03;;;;;;;4.90;3.45;;;17.40;99.90;;;;;;1979399;71;21051;-78
2021/08/22 04:07:29;;;;;;;4.80;4.12;;;17.50;99.90;;;;;;1979073;72;21099;-78
2021/08/22 04:09:56;;;;;;;3.45;3.15;;;17.60;99.90;;;;;;1979361;71;21063;-77
2021/08/22 04:12:22;;;;;;;4.05;3.40;;;17.60;99.90;;;;;;1979043;72;21080;-77
2021/08/22 04:14:48;;;;;;;5.08;3.83;;;17.50;99.90;;;;;;1979146;72;21119;-77
2021/08/22 04:17:14;;;;;;;4.20;3.50;;;17.50;99.90;;;;;;1979243;72;21162;-78
2021/08/22 04:19:43;;;;;;;10.03;3.92;;;17.50;99.90;;;;;;1979040;72;21096;-78
2021/08/22 04:22:09;;;;;;;4.17;3.55;;;17.50;99.90;;;;;;1979059;71;21077;-78
2021/08/22 04:24:35;;;;;;;3.90;3.55;;;17.50;99.90;;;;;;1979151;72;21059;-78
2021/08/22 04:27:01;;;;;;;4.65;3.85;;;17.50;99.90;;;;;;1979187;72;21103;-76
2021/08/22 04:29:27;;;;;;;4.67;3.60;;;17.60;99.90;;;;;;1979115;72;21531;-74
2021/08/22 04:31:54;;;;;;;6.08;4.00;;;17.60;99.90;;;;;;1979141;71;21508;-75
2021/08/22 04:34:20;;;;;;;4.22;3.87;;;17.50;99.90;;;;;;1970931;72;21111;-75
2021/08/22 04:36:47;;;;;;;5.47;3.87;;;17.50;99.90;;;;;;1968459;72;21095;-76
2021/08/22 04:39:13;;;;;;;5.30;3.80;;;17.50;99.90;;;;;;1979414;72;21059;-76
2021/08/22 04:41:40;;;;;;;4.70;4.00;;;17.40;99.90;;;;;;1979702;72;21166;-77
2021/08/22 04:44:06;;;;;;;6.70;4.12;;;17.50;99.90;;;;;;1979400;72;21024;-75
2021/08/22 04:46:32;;;;;;;7.37;4.00;;;17.50;99.90;;;;;;1979170;72;21143;-76
2021/08/22 04:48:58;;;;;;;8.93;3.87;;;17.60;99.90;;;;;;1979354;72;21110;-73
2021/08/22 04:51:24;;;;;;;5.33;4.00;;;17.60;99.90;;;;;;1979227;72;21076;-74
2021/08/22 04:53:50;;;;;;;4.60;4.12;;;17.60;99.90;;;;;;1979372;72;21024;-77
2021/08/22 04:56:16;;;;;;;5.58;4.15;;;17.60;99.90;;;;;;1979181;72;21072;-78
2021/08/22 04:58:43;;;;;;;4.45;3.98;;;17.60;99.90;;;;;;1979348;71;21059;-78
2021/08/22 05:01:09;;;;;;;3.98;3.58;;;17.60;99.90;;;;;;1980147;72;21076;-77
2021/08/22 05:03:35;;;;;;;4.15;3.75;;;17.70;99.90;;;;;;1979524;72;21051;-77
2021/08/22 05:06:01;;;;;;;5.30;3.20;;;17.50;99.90;;;;;;1979267;71;21114;-78
2021/08/22 05:08:27;;;;;;;11.08;3.90;;;17.60;99.90;;;;;;1979263;71;21031;-78
2021/08/22 05:10:54;;;;;;;4.92;3.70;;;17.70;99.90;;;;;;1979296;72;21430;-79
2021/08/22 05:13:20;;;;;;;5.60;4.33;;;17.70;99.90;;;;;;1979481;72;21055;-80
2021/08/22 05:15:46;;;;;;;11.43;3.92;;;17.70;99.90;;;;;;1979192;72;21080;-76
2021/08/22 05:18:12;;;;;;;5.47;3.72;;;17.80;99.90;;;;;;1979170;72;21149;-74
2021/08/22 05:20:38;;;;;;;5.12;3.45;;;17.80;99.90;;;;;;1979365;72;21086;-77
2021/08/22 05:23:04;;;;;;;4.05;3.20;;;17.90;99.90;;;;;;1979379;72;21024;-76
2021/08/22 05:25:31;;;;;;;6.58;3.42;;;17.80;99.90;;;;;;1979189;72;21093;-76
2021/08/22 05:27:57;;;;;;;3.90;3.60;;;18.00;99.90;;;;;;1979212;72;21508;-78
2021/08/22 05:30:23;;;;;;;3.80;3.45;;;18.00;99.90;;;;;;1979262;71;21597;-77
2021/08/22 05:32:49;;;;;;;3.98;3.55;;;18.00;99.90;;;;;;1979302;71;21442;-77
2021/08/22 05:35:15;;;;;;;3.87;3.50;;;18.00;99.90;;;;;;1979263;72;21512;-77
2021/08/22 05:37:41;;;;;;;4.55;4.15;;;18.00;99.90;;;;;;1979475;71;21545;-78
2021/08/22 05:40:07;;;;;;;4.03;3.58;;;18.00;99.90;;;;;;1979227;71;21531;-77
2021/08/22 05:42:33;;;;;;;7.58;3.90;;;18.00;99.90;;;;;;1979332;72;21408;-76
2021/08/22 05:44:59;;;;;;;3.87;3.17;;;18.10;99.90;;;;;;1979191;72;21056;-77
2021/08/22 05:47:26;;;;;;;6.92;3.60;;;18.10;99.90;;;;;;1979202;72;21051;-80
2021/08/22 05:49:52;;;;;;;4.35;3.55;;;18.10;99.90;;;;;;1979292;72;21083;-80
2021/08/22 05:52:18;;;;;;;4.05;3.65;;;18.10;99.90;;;;;;1979261;72;21196;-79
2021/08/22 05:54:44;;;;;;;6.05;3.35;;;18.00;99.90;;;;;;1979337;71;21028;-78
2021/08/22 05:57:10;;;;;;;4.22;3.42;;;18.10;99.90;;;;;;1979368;72;21125;-78
2021/08/22 05:59:36;;;;;;;4.05;3.65;;;18.30;99.90;;;;;;1979152;72;21075;-78
2021/08/22 06:02:02;;;;;;;3.72;3.37;;;18.20;99.90;;;;;;1979265;72;21080;-79
2021/08/22 06:04:30;;;;;;;4.00;3.52;;;18.20;99.90;;;;;;1979256;72;21235;-78
2021/08/22 06:06:56;;;;;;;6.33;3.50;;;18.30;99.90;;;;;;1979295;72;21115;-78
2021/08/22 06:09:23;;;;;;;4.37;3.67;;;18.40;99.90;;;;;;1981829;71;21056;-79
2021/08/22 06:11:49;;;;;;;3.05;2.85;;;18.50;99.90;;;;;;1983148;71;21094;-78
2021/08/22 06:14:15;;;;;;;5.20;3.75;;;18.50;99.90;;;;;;1982845;71;21216;-79
2021/08/22 06:16:41;;;;;;;5.00;3.60;;;18.60;99.90;;;;;;1982276;71;21048;-78
2021/08/22 06:19:07;;;;;;;3.90;3.50;;;18.70;99.90;;;;;;1980585;72;21436;-78
2021/08/22 06:21:33;;;;;;;5.95;3.77;;;18.70;99.90;;;;;;1979779;72;21480;-79
2021/08/22 06:23:59;;;;;;;4.22;3.70;;;18.50;99.90;;;;;;1979419;72;21513;-76
2021/08/22 06:26:26;;;;;;;10.18;3.55;;;18.50;99.90;;;;;;1979422;72;21475;-78
2021/08/22 06:28:54;;;;;;;4.30;3.90;;;18.60;99.90;;;;;;1979236;72;21094;-78
2021/08/22 06:31:20;;;;;;;8.88;3.65;;;18.80;99.90;;;;;;1979153;72;21142;-78
2021/08/22 06:33:46;;;;;;;4.47;3.60;;;18.80;99.90;;;;;;1979218;72;21072;-78
2021/08/22 06:36:12;;;;;;;4.25;3.15;;;19.00;99.90;;;;;;1979201;72;21088;-78
2021/08/22 06:38:39;;;;;;;6.25;3.40;;;19.10;99.90;;;;;;1979350;72;21071;-78
2021/08/22 06:41:05;;;;;;;4.83;3.55;;;19.20;99.90;;;;;;1979236;72;21085;-78
2021/08/22 06:43:31;;;;;;;3.87;3.05;;;19.30;99.90;;;;;;1979355;72;21469;-78
2021/08/22 06:45:57;;;;;;;7.80;3.72;;;19.30;99.90;;;;;;1979361;72;21483;-78
2021/08/22 06:48:23;;;;;;;4.05;3.50;;;19.30;99.90;;;;;;1979316;72;21496;-78
2021/08/22 06:50:49;;;;;;;7.95;3.83;;;19.30;99.90;;;;;;1979145;71;21528;-78
2021/08/22 06:53:15;;;;;;;5.10;3.87;;;19.40;99.90;;;;;;1979362;72;21487;-78
2021/08/22 06:55:42;;;;;;;4.55;3.83;;;19.20;99.90;;;;;;1979108;72;21523;-77
2021/08/22 06:58:08;;;;;;;8.08;3.72;;;19.20;99.90;;;;;;1979292;72;21106;-78
2021/08/22 07:00:34;;;;;;;3.52;3.00;;;19.40;99.90;;;;;;1979418;72;21051;-78
2021/08/22 07:03:00;;;;;;;5.58;3.50;;;19.40;99.90;;;;;;1979384;71;21064;-78
2021/08/22 07:05:27;;;;;;;5.12;4.03;;;19.40;99.90;;;;;;1979266;71;21484;-78
2021/08/22 07:07:53;;;;;;;4.97;3.45;;;19.10;99.90;;;;;;1979223;72;21520;-78
2021/08/22 07:10:19;;;;;;;3.35;3.15;;;18.80;99.90;;;;;;1979158;72;21169;-78
2021/08/22 07:12:51;;;;;;;5.28;3.85;;;19.00;99.90;;;;;;1979255;72;21072;-78
2021/08/22 07:15:17;;;;;;;4.60;3.67;;;19.20;99.90;;;;;;1979124;72;21153;-78
2021/08/22 07:17:43;;;;;;;4.67;3.50;;;19.20;99.90;;;;;;1979252;72;21059;-79
2021/08/22 07:20:09;;;;;;;3.55;3.25;;;19.20;99.90;;;;;;1979352;72;21502;-78
2021/08/22 07:22:35;;;;;;;6.12;3.62;;;19.30;99.90;;;;;;1979269;72;21546;-77
2021/08/22 07:25:04;;;;;;;4.55;3.52;;;19.30;99.90;;;;;;1977010;72;21515;-78
2021/08/22 07:27:29;;;;;;;5.30;3.58;;;19.30;99.90;;;;;;1972477;72;21095;-78
2021/08/22 07:29:55;;;;;;;4.80;3.65;;;19.50;99.90;;;;;;1967751;72;21092;-78
2021/08/22 07:32:21;;;;;;;7.22;4.08;;;19.80;99.90;;;;;;1976489;72;21424;-78
2021/08/22 07:34:47;;;;;;;3.35;3.05;;;19.80;99.90;;;;;;1980158;72;21036;-78
2021/08/22 07:37:14;;;;;;;4.95;3.67;;;19.80;99.90;;;;;;1975591;72;21072;-77
2021/08/22 07:39:40;;;;;;;7.15;3.45;;;20.20;99.90;;;;;;1968793;72;21200;-78
2021/08/22 07:42:06;;;;;;;7.85;3.80;;;20.30;99.90;;;;;;1979083;72;21162;-77
2021/08/22 07:44:35;;;;;;;7.72;3.40;;;20.30;99.90;;;;;;1979161;72;21091;-78
2021/08/22 07:47:01;;;;;;;3.80;3.37;;;20.20;99.90;;;;;;1979128;72;21076;-77
2021/08/22 07:49:27;;;;;;;5.65;3.47;;;20.40;99.90;;;;;;1979042;72;21134;-77
2021/08/22 07:51:53;;;;;;;4.67;3.45;;;20.60;99.90;;;;;;1979222;72;21027;-77
2021/08/22 07:54:21;;;;;;;6.45;3.70;;;20.50;99.90;;;;;;1979087;72;21169;-78
2021/08/22 07:56:47;;;;;;;5.03;3.58;;;20.70;99.90;;;;;;1979015;72;21512;-77
2021/08/22 07:59:13;;;;;;;4.87;3.67;;;20.90;99.90;;;;;;1979089;72;21523;-77
2021/08/22 08:01:39;;;;;;;4.35;3.30;;;21.00;99.90;;;;;;1979260;72;21523;-77
2021/08/22 08:04:06;;;;;;;6.85;3.45;;;20.90;99.90;;;;;;1979102;72;21660;-77
2021/08/22 08:06:32;;;;;;;9.50;3.30;;;21.00;99.90;;;;;;1979263;71;21527;-77
2021/08/22 08:08:59;;;;;;;3.50;3.20;;;21.00;99.90;;;;;;1979129;72;21501;-76
2021/08/22 08:11:25;;;;;;;6.10;3.22;;;21.10;99.90;;;;;;1979187;72;21160;-77
2021/08/22 08:13:51;;;;;;;3.10;2.90;;;21.20;99.90;;;;;;1979307;72;21028;-77
2021/08/22 08:16:18;;;;;;;3.40;3.08;;;21.20;99.90;;;;;;1979402;72;21052;-77
2021/08/22 08:18:45;;;;;;;4.20;3.30;;;21.30;99.90;;;;;;1979535;71;21508;-77
2021/08/22 08:21:11;;;;;;;3.35;2.80;;;21.30;99.90;;;;;;1979671;72;21377;-76
2021/08/22 08:23:37;;;;;;;5.08;3.27;;;21.30;99.90;;;;;;1979462;72;21569;-78
2021/08/22 08:26:03;;;;;;;11.83;3.05;;;21.20;99.90;;;;;;1979465;71;21611;-77
2021/08/22 08:28:31;;;;;;;3.50;2.72;;;21.20;99.90;;;;;;1979409;71;21055;-76
2021/08/22 08:30:57;;;;;;;2.70;2.50;;;21.30;99.90;;;;;;1980083;72;21467;-76
2021/08/22 08:33:23;;;;;;;3.10;2.70;;;21.40;99.90;;;;;;1979861;72;21596;-76
2021/08/22 08:35:49;;;;;;;4.00;2.98;;;21.50;99.90;;;;;;1980373;72;21112;-76
2021/08/22 08:38:16;;;;;;;3.65;3.02;;;21.70;99.90;;;;;;1980119;72;21144;-76
2021/08/22 08:40:43;;;;;;;3.47;2.30;;;21.80;99.90;;;;;;1979989;72;21092;-78
2021/08/22 08:43:09;;;;;;;2.92;2.50;;;21.90;99.90;;;;;;1979599;72;21102;-79
2021/08/22 08:45:35;;;;;;;3.35;3.02;;;22.10;99.90;;;;;;1979249;72;21080;-76
2021/08/22 08:48:01;;;;;;;3.62;2.60;;;22.30;99.90;;;;;;1979357;72;21059;-77
2021/08/22 08:50:27;;;;;;;8.78;3.12;;;22.40;99.90;;;;;;1979458;72;21080;-77
2021/08/22 08:52:54;;;;;;;2.60;2.40;;;22.60;99.90;;;;;;1979545;72;21036;-77
2021/08/22 08:55:20;;;;;;;2.85;2.47;;;22.70;99.90;;;;;;1979473;72;21072;-77
2021/08/22 08:57:46;;;;;;;4.60;2.80;;;22.70;99.90;;;;;;1979539;72;21076;-77
2021/08/22 09:00:12;;;;;;;2.98;2.27;;;22.60;99.90;;;;;;1979365;72;21084;-77
2021/08/22 09:02:38;;;;;;;3.33;2.62;;;22.30;99.90;;;;;;1979596;72;21167;-77
2021/08/22 09:05:04;;;;;;;6.08;2.83;;;22.00;99.90;;;;;;1979608;72;21052;-77
2021/08/22 09:07:32;;;;;;;3.40;2.62;;;21.80;99.90;;;;;;1979585;72;21055;-77
2021/08/22 09:09:58;;;;;;;3.27;2.92;;;21.70;99.90;;;;;;1979214;72;21119;-78
2021/08/22 09:12:24;;;;;;;2.80;2.58;;;21.70;99.90;;;;;;1979378;72;21055;-78
2021/08/22 09:14:50;;;;;;;5.00;2.52;;;21.70;99.90;;;;;;1979335;72;21069;-78
2021/08/22 09:17:17;;;;;;;2.95;2.75;;;21.70;99.90;;;;;;1979308;71;21080;-78
2021/08/22 09:19:43;;;;;;;2.90;2.52;;;21.90;99.90;;;;;;1979313;72;21136;-79
2021/08/22 09:22:09;;;;;;;7.28;3.17;;;22.10;99.90;;;;;;1979182;72;21106;-79
2021/08/22 09:24:35;;;;;;;4.20;2.40;;;22.30;99.90;;;;;;1979277;72;21055;-79
2021/08/22 09:27:01;;;;;;;3.95;2.75;;;22.30;99.90;;;;;;1978993;72;21080;-78
2021/08/22 09:29:28;;;;;;;6.72;3.10;;;22.40;99.90;;;;;;1979356;72;21028;-78
2021/08/22 09:31:54;;;;;;;3.08;2.77;;;22.50;99.90;;;;;;1979173;71;21076;-78
2021/08/22 09:34:20;;;;;;;3.60;2.87;;;22.90;99.90;;;;;;1979271;72;21079;-79
2021/08/22 09:36:46;;;;;;;2.83;2.60;;;23.00;99.90;;;;;;1979104;72;21149;-79
2021/08/22 09:39:12;;;;;;;3.02;2.72;;;23.50;99.90;;;;;;1979223;71;21072;-79
2021/08/22 09:41:38;;;;;;;3.33;2.40;;;23.90;99.90;;;;;;1979124;72;21072;-79
2021/08/22 09:44:04;;;;;;;5.87;2.40;;;24.00;99.90;;;;;;1979077;71;21052;-78
2021/08/22 09:46:30;;;;;;;3.42;2.58;;;23.60;99.90;;;;;;1979143;71;21124;-79
2021/08/22 09:48:58;;;;;;;4.65;2.20;;;23.40;99.90;;;;;;1979255;72;21054;-79
2021/08/22 09:51:24;;;;;;;3.00;2.70;;;23.50;99.90;;;;;;1979311;72;21112;-77
2021/08/22 09:53:50;;;;;;;3.25;2.37;;;23.30;99.90;;;;;;1968504;72;21157;-77
2021/08/22 09:56:18;;;;;;;3.05;2.30;;;23.20;99.90;;;;;;1976133;72;21071;-77
2021/08/22 09:58:44;;;;;;;6.75;2.58;;;23.20;99.90;;;;;;1960184;72;21512;-78
2021/08/22 10:01:10;;;;;;;4.20;2.72;;;23.10;99.90;;;;;;1978869;71;21621;-78
2021/08/22 10:03:38;;;;;;;3.55;2.72;;;23.00;99.90;;;;;;1974099;72;21597;-78
2021/08/22 10:06:04;;;;;;;2.65;2.33;;;23.10;99.90;;;;;;1979121;72;21088;-78
2021/08/22 10:08:30;;;;;;;3.35;2.67;;;23.20;99.90;;;;;;1979142;72;21091;-78
2021/08/22 10:10:56;;;;;;;3.10;2.90;;;23.30;99.90;;;;;;1973936;72;21132;-77
2021/08/22 10:13:22;;;;;;;4.72;2.92;;;23.10;99.90;;;;;;1979194;71;21519;-77
2021/08/22 10:15:50;;;;;;;4.62;2.62;;;22.80;99.90;;;;;;1979263;72;21488;-77
2021/08/22 10:18:16;;;;;;;4.72;2.83;;;23.00;99.90;;;;;;1979159;72;21088;-77
2021/08/22 10:20:42;;;;;;;4.08;2.75;;;23.00;99.90;;;;;;1979359;72;21094;-78
2021/08/22 10:23:08;;;;;;;3.37;3.00;;;22.90;99.90;;;;;;1979189;72;21076;-77
2021/08/22 10:25:34;;;;;;;3.45;2.80;;;22.60;99.90;;;;;;1979335;72;21031;-77
2021/08/22 10:28:01;;;;;;;3.50;2.77;;;22.70;99.90;;;;;;1979297;72;21133;-77
2021/08/22 10:30:27;;;;;;;4.35;3.00;;;22.40;99.90;;;;;;1979191;72;21158;-78
2021/08/22 10:32:53;;;;;;;3.55;2.85;;;22.50;99.90;;;;;;1979416;72;21059;-78
2021/08/22 10:35:19;;;;;;;4.50;2.75;;;22.70;99.90;;;;;;1979223;72;21600;-78
2021/08/22 10:37:45;;;;;;;4.75;2.95;;;22.60;99.90;;;;;;1979369;72;21141;-78
2021/08/22 10:40:11;;;;;;;2.92;2.72;;;22.60;99.90;;;;;;1982118;72;21072;-78
2021/08/22 10:42:39;;;;;;;3.58;3.00;;;22.60;99.90;;;;;;1983075;71;21072;-77
2021/08/22 10:45:05;;;;;;;3.37;2.85;;;22.70;99.90;;;;;;1953241;72;21467;-78
2021/08/22 10:47:31;;;;;;;3.87;2.60;;;22.70;99.90;;;;;;1979525;72;21120;-78
2021/08/22 10:49:57;;;;;;;2.85;2.62;;;22.40;99.90;;;;;;1979548;72;21113;-78
2021/08/22 10:52:23;;;;;;;3.05;2.77;;;22.40;99.90;;;;;;1979242;72;21076;-78
2021/08/22 10:54:49;;;;;;;3.08;2.77;;;22.30;99.90;;;;;;1982803;72;21107;-78
2021/08/22 10:57:16;;;;;;;3.62;3.20;;;22.30;99.90;;;;;;1983106;72;20981;-78
2021/08/22 10:59:42;;;;;;;3.47;3.17;;;22.10;99.90;;;;;;1980279;72;21016;-78
2021/08/22 11:02:08;;;;;;;4.55;3.05;;;22.10;99.90;;;;;;1979634;72;21028;-78
2021/08/22 11:04:34;;;;;;;3.87;2.95;;;21.90;99.90;;;;;;1979242;72;21072;-79
2021/08/22 11:07:02;;;;;;;3.60;3.05;;;22.00;99.90;;;;;;1979320;72;21165;-79
2021/08/22 11:09:28;;;;;;;3.72;3.08;;;22.00;99.90;;;;;;1979129;72;21059;-77
2021/08/22 11:11:54;;;;;;;3.17;2.87;;;22.10;99.90;;;;;;1979273;72;21116;-78
2021/08/22 11:14:20;;;;;;;3.58;3.27;;;22.30;99.90;;;;;;1979076;72;21080;-78
2021/08/22 11:16:49;;;;;;;3.87;3.00;;;22.40;99.90;;;;;;1979359;72;21047;-78
2021/08/22 11:19:14;;;;;;;3.22;2.92;;;22.50;99.90;;;;;;1979043;72;21445;-78
2021/08/22 11:21:40;;;;;;;3.50;2.90;;;22.60;99.90;;;;;;1979091;72;21506;-78
2021/08/22 11:24:07;;;;;;;4.65;3.70;;;22.50;99.90;;;;;;1979279;72;21043;-78
2021/08/22 11:26:33;;;;;;;3.35;3.05;;;22.20;99.90;;;;;;1979118;72;21095;-78
2021/08/22 11:28:59;;;;;;;3.85;3.50;;;22.00;99.90;;;;;;1979141;72;21208;-78
2021/08/22 11:31:27;;;;;;;3.50;3.20;;;21.60;99.90;;;;;;1979164;72;21072;-78
2021/08/22 11:33:55;;;;;;;3.40;3.10;;;21.40;99.90;;;;;;1979005;72;21069;-79
2021/08/22 11:36:21;;;;;;;4.83;3.87;;;21.20;99.90;;;;;;1979139;72;21546;-78
2021/08/22 11:38:48;;;;;;;3.92;3.55;;;21.10;99.90;;;;;;1979255;72;21439;-78
2021/08/22 11:41:14;;;;;;;4.55;3.10;;;20.90;99.90;;;;;;1979378;72;21051;-78
2021/08/22 11:43:40;;;;;;;2.40;2.20;;;20.80;99.90;;;;;;1979168;72;21084;-79
2021/08/22 11:46:06;;;;;;;5.45;2.30;;;20.70;99.90;;;;;;1979410;72;21116;-78
2021/08/22 11:48:32;;;;;;;3.77;2.20;;;20.50;99.90;;;;;;1979856;72;21080;-77
2021/08/22 11:50:58;;;;;;;3.10;1.40;;;20.30;99.90;;;;;;1980097;71;21100;-78
2021/08/22 11:53:25;;;;;;;1.40;1.30;;;20.10;99.90;;;;;;1979938;71;21112;-78
2021/08/22 11:55:52;;;;;;;1.27;1.17;;;20.00;99.90;;;;;;1979960;72;21055;-77
2021/08/22 11:58:19;;;;;;;1.40;1.30;;;20.00;99.90;;;;;;1973482;72;21072;-77
2021/08/22 12:00:45;;;;;;;1.22;1.12;;;19.90;99.90;;;;;;1977418;72;21225;-78
2021/08/22 12:03:13;;;;;;;1.80;1.50;;;19.80;99.90;;;;;;1979954;72;21120;-78
2021/08/22 12:05:39;;;;;;;0.90;0.90;;;19.80;99.90;;;;;;1979959;72;21059;-78
2021/08/22 12:08:05;;;;;;;1.67;1.57;;;19.80;99.90;;;;;;1979937;72;21051;-79
2021/08/22 12:10:31;;;;;;;2.22;1.32;;;19.90;99.90;;;;;;1980179;71;21459;-78
2021/08/22 12:12:57;;;;;;;2.05;1.32;;;19.90;99.90;;;;;;1975565;72;21600;-77
2021/08/22 12:15:23;;;;;;;2.00;1.40;;;20.10;99.90;;;;;;1980976;72;21169;-77
2021/08/22 12:17:49;;;;;;;1.30;1.20;;;19.90;99.90;;;;;;1979816;72;21578;-78
2021/08/22 12:20:15;;;;;;;1.65;1.55;;;20.00;99.90;;;;;;1974499;72;21447;-77
2021/08/22 12:22:42;;;;;;;1.70;1.45;;;20.00;99.90;;;;;;1979391;72;21028;-78
2021/08/22 12:25:08;;;;;;;1.50;1.40;;;20.10;99.90;;;;;;1955336;72;21088;-77
2021/08/22 12:27:38;;;;;;;2.55;1.75;;;20.00;99.90;;;;;;1972284;72;21080;-78
2021/08/22 12:30:02;;;;;;;1.80;1.50;;;19.90;99.90;;;;;;1970949;72;21080;-78
2021/08/22 12:32:28;;;;;;;2.67;1.87;;;19.80;99.90;;;;;;1979364;71;21039;-79
2021/08/22 12:34:54;;;;;;;1.45;1.35;;;19.70;99.90;;;;;;1979243;72;21520;-79
2021/08/22 12:37:21;;;;;;;2.20;1.60;;;19.80;99.90;;;;;;1979344;72;21503;-78
2021/08/22 12:39:47;;;;;;;1.50;1.40;;;19.70;99.90;;;;;;1979359;72;21132;-77